메인 페이지
METAR-TAF:

METAR-TAF

공항 :

지브롤터 공항

지브롤터, 지브롤터

위도: 36-09N, 경도: 005-21W, 고도: 5m

현재 날씨관측

예보는 1 시간 13분 전, 10:50시(UTC)에 발표되었습니다.
북동12kt
온도 18°C
습도 88%
기압 1014 hPa
시정 10km 이상
고도 900ft 상공 구름 조금
고도 1800ft 상공 구름 많음, 타워링 적운.
고도 2800ft 상공 구름 많음
약한소나기

METAR: LXGB 201050Z 05012KT 9999 -SHRA FEW009 BKN018TCU BKN028 18/16 Q1014 TEMPO 6000 SHRA SCT009

시각: 14:03 (12:03 UTC)

예보

예보는 1 시간 22분 전, 10:41시(UTC)에 발표되었습니다.
예보 대상 시간: 20일 12시부터 20일 21시까지 (UTC)
동북동14kt
시정 10km 이상
고도 1500ft 상공 구름 조금
고도 3000ft 상공 구름 많음
일시적
20일 12시부터 20일 14시까지 (UTC)
15kt, 순간 최대 풍속 25kt
시정: 6000m
고도 800ft 상공 구름 보통
고도 1500ft 상공 구름 많음, 타워링 적운.
소나기
확률 40% :
일시적
20일 14시부터 20일 21시까지 (UTC)
시정: 6000m
고도 1500ft 상공 구름 보통, 타워링 적운.
소나기

TAF: LXGB 201041Z 2012/2021 07014KT 9999 FEW015 BKN030 TEMPO 2012/2014 10015G25KT 6000 SHRA SCT008 BKN015TCU PROB40 TEMPO 2014/2021 6000 SHRA SCT015TCU

4,000개 이상의 공항 관측 자료 및 예보 (METAR 및 TAF 보고).

지도상에서 검색 가능한 기상관측소가 노란 점과 빨간 점으로 표시되어 있습니다.

기상관측소 명을 보려면 표시 위로 마우스를 이동하세요.

날씨 관측과 예보를 보려면 클릭하세요.

지도 변경 : 확대하려면 엑스 표시가 있는 녹색 버튼, 축소하려면 빼기 표시가 있는 녹색 버튼, 다음 페이지의 지도를 보려면 녹색 화살표를 클릭하세요.


METAR-TAF: